createdAt,value
2018-12-20T00:00:25.269Z,0.00
2018-12-20T00:01:25.269Z,0.00
2018-12-20T00:02:25.206Z,0.00
2018-12-20T00:03:25.169Z,0.00
2018-12-20T00:04:25.086Z,0.00
2018-12-20T00:05:25.045Z,0.00
2018-12-20T00:06:25.085Z,0.00
2018-12-20T00:07:24.968Z,0.00
2018-12-20T00:08:24.936Z,0.00
2018-12-20T00:09:24.977Z,0.00
2018-12-20T00:10:24.901Z,0.00
2018-12-20T00:11:24.801Z,0.00
2018-12-20T00:12:24.757Z,0.00
2018-12-20T00:13:24.717Z,0.00
2018-12-20T00:14:29.846Z,0.00
2018-12-20T00:15:24.655Z,0.00
2018-12-20T00:16:24.591Z,0.00
2018-12-20T00:17:24.566Z,0.00
2018-12-20T00:18:24.610Z,0.00
2018-12-20T00:19:24.471Z,0.00
2018-12-20T00:20:24.518Z,0.00
2018-12-20T00:21:24.387Z,0.00
2018-12-20T00:22:24.465Z,0.00
2018-12-20T00:23:24.328Z,0.00
2018-12-20T00:24:24.368Z,0.00
2018-12-20T00:25:24.289Z,0.00
2018-12-20T00:26:24.184Z,0.00
2018-12-20T00:27:24.268Z,0.00
2018-12-20T00:28:24.210Z,0.00
2018-12-20T00:29:24.081Z,0.00
2018-12-20T00:30:24.015Z,0.00
2018-12-20T00:31:23.978Z,0.00
2018-12-20T00:32:23.972Z,0.00
2018-12-20T00:33:24.005Z,0.00
2018-12-20T00:34:23.861Z,0.00
2018-12-20T00:35:23.991Z,0.00
2018-12-20T00:36:23.893Z,0.00
2018-12-20T00:37:23.806Z,0.00
2018-12-20T00:38:23.683Z,0.00
2018-12-20T00:39:23.675Z,0.00
2018-12-20T00:40:23.704Z,0.00
2018-12-20T00:41:23.742Z,0.00
2018-12-20T00:42:23.589Z,0.00
2018-12-20T00:43:23.485Z,0.00
2018-12-20T00:44:23.442Z,0.00
2018-12-20T00:45:23.401Z,0.00
2018-12-20T00:46:23.496Z,0.00
2018-12-20T00:47:23.330Z,0.00
2018-12-20T00:48:23.275Z,0.00
2018-12-20T00:49:23.234Z,0.00
2018-12-20T00:50:23.208Z,0.00
2018-12-20T00:51:23.182Z,0.00
2018-12-20T00:52:23.229Z,0.00
2018-12-20T00:53:23.117Z,0.00
2018-12-20T00:54:23.032Z,0.00
2018-12-20T00:55:22.985Z,0.00
2018-12-20T00:56:22.947Z,0.00
2018-12-20T00:57:22.982Z,0.00
2018-12-20T00:58:22.987Z,0.00
2018-12-20T00:59:23.042Z,0.00
2018-12-20T01:00:22.784Z,0.00
2018-12-20T01:01:22.865Z,0.00
2018-12-20T01:02:22.703Z,0.00
2018-12-20T01:03:22.664Z,0.00
2018-12-20T01:04:22.779Z,0.00
2018-12-20T01:05:22.625Z,0.00
2018-12-20T01:06:22.540Z,0.00
2018-12-20T01:07:22.551Z,0.00
2018-12-20T01:08:22.454Z,0.00
2018-12-20T01:09:22.412Z,0.00
2018-12-20T01:10:22.395Z,0.00
2018-12-20T01:11:22.552Z,0.00
2018-12-20T01:12:22.291Z,0.00
2018-12-20T01:13:22.267Z,0.00
2018-12-20T01:14:22.206Z,0.00
2018-12-20T01:15:22.171Z,0.00
2018-12-20T01:16:22.153Z,0.00
2018-12-20T01:17:22.210Z,0.00
2018-12-20T01:18:22.055Z,0.00
2018-12-20T01:19:22.011Z,0.00
2018-12-20T01:20:21.976Z,0.00
2018-12-20T01:21:21.971Z,0.00
2018-12-20T01:22:22.013Z,0.00
2018-12-20T01:23:22.058Z,0.00
2018-12-20T01:24:21.803Z,0.00
2018-12-20T01:25:21.808Z,0.00
2018-12-20T01:26:21.729Z,0.00
2018-12-20T01:27:21.680Z,0.00
2018-12-20T01:28:21.734Z,0.00
2018-12-20T01:29:21.599Z,0.00
2018-12-20T01:30:21.574Z,0.00
2018-12-20T01:31:21.541Z,0.00
2018-12-20T01:32:21.574Z,0.00
2018-12-20T01:33:21.635Z,0.00
2018-12-20T01:34:21.402Z,0.00
2018-12-20T01:35:21.554Z,0.00
2018-12-20T01:36:21.331Z,0.00
2018-12-20T01:37:21.281Z,0.00
2018-12-20T01:38:21.234Z,0.00
2018-12-20T01:39:21.202Z,0.00
2018-12-20T01:40:21.144Z,0.00
2018-12-20T01:41:21.102Z,0.00
2018-12-20T01:42:21.142Z,0.00
2018-12-20T01:43:21.040Z,0.00
2018-12-20T01:44:21.044Z,0.00
2018-12-20T01:45:21.051Z,0.00
2018-12-20T01:46:21.027Z,0.00
2018-12-20T01:47:20.872Z,0.00
2018-12-20T01:48:20.819Z,0.00
2018-12-20T01:49:20.822Z,0.00
2018-12-20T01:50:20.738Z,0.00
2018-12-20T01:51:20.707Z,0.00
2018-12-20T01:52:20.653Z,0.00
2018-12-20T01:53:20.611Z,0.00
2018-12-20T01:54:20.569Z,0.00
2018-12-20T01:55:20.560Z,0.00
2018-12-20T01:56:20.489Z,0.00
2018-12-20T01:57:20.449Z,0.00
2018-12-20T01:58:20.448Z,0.00
2018-12-20T01:59:20.386Z,0.00
2018-12-20T02:00:20.409Z,0.00
2018-12-20T02:01:20.432Z,0.00
2018-12-20T02:02:20.247Z,0.00
2018-12-20T02:03:20.215Z,0.00
2018-12-20T02:04:20.161Z,0.00
2018-12-20T02:05:20.148Z,0.00
2018-12-20T02:06:20.149Z,0.00
2018-12-20T02:07:20.046Z,0.00
2018-12-20T02:08:20.000Z,0.00
2018-12-20T02:09:20.160Z,0.00
2018-12-20T02:10:20.124Z,0.00
2018-12-20T02:11:20.037Z,0.00
2018-12-20T02:12:19.834Z,0.00
2018-12-20T02:13:19.963Z,0.00
2018-12-20T02:14:19.751Z,0.00
2018-12-20T02:15:19.853Z,0.00
2018-12-20T02:16:19.678Z,0.00
2018-12-20T02:17:19.709Z,0.00
2018-12-20T02:18:19.601Z,0.00
2018-12-20T02:19:19.714Z,0.00
2018-12-20T02:20:19.639Z,0.00
2018-12-20T02:21:19.471Z,0.00
2018-12-20T02:22:19.435Z,0.00
2018-12-20T02:23:19.420Z,0.00
2018-12-20T02:24:19.550Z,0.00
2018-12-20T02:25:19.304Z,0.00
2018-12-20T02:26:19.365Z,0.00
2018-12-20T02:27:19.232Z,0.00
2018-12-20T02:28:19.184Z,0.00
2018-12-20T02:29:19.143Z,0.00
2018-12-20T02:30:19.146Z,0.00
2018-12-20T02:31:19.060Z,0.00
2018-12-20T02:32:19.219Z,0.00
2018-12-20T02:33:19.062Z,0.00
2018-12-20T02:34:18.946Z,0.00
2018-12-20T02:35:18.893Z,0.00
2018-12-20T02:36:18.856Z,0.00
2018-12-20T02:37:18.889Z,0.00
2018-12-20T02:38:19.100Z,0.00
2018-12-20T02:39:18.737Z,0.00
2018-12-20T02:40:19.011Z,0.00
2018-12-20T02:41:18.673Z,0.00
2018-12-20T02:42:18.622Z,0.00
2018-12-20T02:43:18.567Z,0.00
2018-12-20T02:44:18.588Z,0.00
2018-12-20T02:45:18.492Z,0.00
2018-12-20T02:46:18.445Z,0.00
2018-12-20T02:47:18.422Z,0.00
2018-12-20T02:48:18.370Z,0.00
2018-12-20T02:49:18.426Z,0.00
2018-12-20T02:50:18.284Z,0.00
2018-12-20T02:51:18.249Z,0.00
2018-12-20T02:52:18.208Z,0.00
2018-12-20T02:53:18.232Z,0.00
2018-12-20T02:54:18.260Z,0.00
2018-12-20T02:55:18.340Z,0.00
2018-12-20T02:56:18.042Z,0.00
2018-12-20T02:57:18.119Z,0.00
2018-12-20T02:58:18.049Z,0.00
2018-12-20T02:59:17.923Z,0.00
2018-12-20T03:00:17.975Z,0.00
2018-12-20T03:01:17.839Z,0.00
2018-12-20T03:02:17.802Z,0.00
2018-12-20T03:03:17.873Z,0.00
2018-12-20T03:04:17.714Z,0.00
2018-12-20T03:05:17.676Z,0.00
2018-12-20T03:06:17.689Z,0.00
2018-12-20T03:07:17.591Z,0.00
2018-12-20T03:08:17.551Z,0.00
2018-12-20T03:09:17.695Z,0.00
2018-12-20T03:10:17.511Z,0.00
2018-12-20T03:11:17.471Z,0.00
2018-12-20T03:12:17.442Z,0.00
2018-12-20T03:13:17.401Z,0.00
2018-12-20T03:14:17.433Z,0.00
2018-12-20T03:15:20.170Z,0.00
2018-12-20T03:16:17.288Z,0.00
2018-12-20T03:17:17.187Z,0.00
2018-12-20T03:18:17.161Z,0.00
2018-12-20T03:19:17.109Z,0.00
2018-12-20T03:20:17.066Z,0.00
2018-12-20T03:21:17.139Z,0.00
2018-12-20T03:22:16.980Z,0.00
2018-12-20T03:23:16.946Z,0.00
2018-12-20T03:24:17.112Z,0.00
2018-12-20T03:25:16.867Z,0.00
2018-12-20T03:26:17.044Z,0.00
2018-12-20T03:27:16.776Z,0.00
2018-12-20T03:28:16.826Z,0.00
2018-12-20T03:29:16.707Z,0.00
2018-12-20T03:30:16.712Z,0.00
2018-12-20T03:31:16.685Z,0.00
2018-12-20T03:32:16.576Z,0.00
2018-12-20T03:33:16.785Z,0.00
2018-12-20T03:34:16.562Z,0.00
2018-12-20T03:35:16.593Z,0.00
2018-12-20T03:36:16.451Z,0.00
2018-12-20T03:37:16.477Z,0.00
2018-12-20T03:38:16.360Z,0.00
2018-12-20T03:39:16.425Z,0.00
2018-12-20T03:40:16.294Z,0.00
2018-12-20T03:41:16.396Z,0.00
2018-12-20T03:42:16.171Z,0.00
2018-12-20T03:43:16.141Z,0.00
2018-12-20T03:44:16.086Z,0.00
2018-12-20T03:45:16.150Z,0.00
2018-12-20T03:46:16.002Z,0.00
2018-12-20T03:47:15.967Z,0.00
2018-12-20T03:48:16.061Z,0.00
2018-12-20T03:49:15.883Z,0.00
2018-12-20T03:50:15.890Z,0.00
2018-12-20T03:51:15.798Z,0.00
2018-12-20T04:06:24.788Z,0.00
2018-12-20T04:07:25.150Z,0.00
2018-12-20T04:08:24.667Z,0.00
2018-12-20T04:09:24.760Z,0.00
2018-12-20T04:10:24.891Z,0.00
2018-12-20T04:11:24.510Z,0.00
2018-12-20T04:12:24.466Z,0.00
2018-12-20T04:13:24.526Z,0.00
2018-12-20T04:14:24.388Z,0.00
2018-12-20T04:15:24.603Z,0.00
2018-12-20T04:16:24.306Z,0.00
2018-12-20T04:17:24.255Z,0.00
2018-12-20T04:18:24.363Z,0.00
2018-12-20T04:19:24.171Z,0.00
2018-12-20T04:20:24.344Z,0.00
2018-12-20T04:21:24.095Z,0.00
2018-12-20T04:22:32.709Z,0.00
2018-12-20T04:24:28.555Z,0.00
2018-12-20T04:25:28.399Z,0.00
2018-12-20T04:26:28.430Z,0.00
2018-12-20T04:27:28.304Z,0.00
2018-12-20T04:28:28.266Z,0.00
2018-12-20T04:29:28.249Z,0.00
2018-12-20T04:30:28.457Z,0.00
2018-12-20T04:31:28.255Z,0.00
2018-12-20T04:32:28.093Z,0.00
2018-12-20T04:33:28.052Z,0.00
2018-12-20T04:34:28.027Z,0.00
2018-12-20T04:35:27.976Z,0.00
2018-12-20T04:36:28.247Z,0.00
2018-12-20T04:37:28.085Z,0.00
2018-12-20T04:38:28.196Z,0.00
2018-12-20T04:39:27.811Z,0.00
2018-12-20T04:40:27.810Z,0.00
2018-12-20T04:41:27.941Z,0.00
2018-12-20T04:42:27.863Z,0.00
2018-12-20T04:43:27.725Z,0.00
2018-12-20T04:44:27.918Z,0.00
2018-12-20T04:45:27.557Z,0.00
2018-12-20T04:46:27.571Z,0.00
2018-12-20T04:47:27.668Z,0.00
2018-12-20T04:48:27.467Z,0.00
2018-12-20T04:49:27.571Z,0.00
2018-12-20T04:50:27.403Z,0.00
2018-12-20T04:51:27.312Z,0.00
2018-12-20T04:52:27.462Z,0.00
2018-12-20T04:53:27.279Z,0.00
2018-12-20T04:54:27.194Z,0.00
2018-12-20T04:55:27.158Z,0.00
2018-12-20T04:56:27.268Z,0.00
2018-12-20T04:57:27.186Z,0.00
2018-12-20T04:58:27.127Z,0.00
2018-12-20T04:59:27.023Z,0.00
2018-12-20T05:00:26.949Z,0.00
2018-12-20T05:01:26.974Z,0.00
2018-12-20T05:02:26.922Z,0.00
2018-12-20T05:03:26.885Z,0.00
2018-12-20T05:04:26.778Z,0.00
2018-12-20T05:05:26.756Z,0.00
2018-12-20T05:06:26.691Z,0.00
2018-12-20T05:07:26.859Z,0.00
2018-12-20T05:08:26.699Z,0.00
2018-12-20T05:09:26.571Z,0.00
2018-12-20T05:10:26.704Z,0.00
2018-12-20T05:11:26.495Z,0.00
2018-12-20T05:12:26.450Z,0.00
2018-12-20T05:13:26.436Z,0.00
2018-12-20T05:14:26.460Z,0.00
2018-12-20T05:15:26.368Z,0.00
2018-12-20T05:16:26.385Z,0.00
2018-12-20T05:17:26.247Z,0.00
2018-12-20T05:18:26.216Z,0.00
2018-12-20T05:19:26.210Z,0.00
2018-12-20T05:20:26.194Z,0.00
2018-12-20T05:21:26.103Z,0.00
2018-12-20T05:22:26.278Z,0.00
2018-12-20T05:23:26.294Z,0.00
2018-12-20T05:24:26.137Z,0.00
2018-12-20T05:25:26.092Z,0.00
2018-12-20T05:26:25.883Z,0.00
2018-12-20T05:27:25.883Z,0.00
2018-12-20T05:28:25.811Z,0.00
2018-12-20T05:29:25.842Z,0.00
2018-12-20T05:30:25.711Z,0.00
2018-12-20T05:31:25.671Z,0.00
2018-12-20T05:32:25.927Z,0.00
2018-12-20T05:33:25.810Z,0.00
2018-12-20T05:34:25.598Z,0.00
2018-12-20T05:35:25.577Z,0.00
2018-12-20T05:36:25.499Z,0.00
2018-12-20T05:37:25.609Z,0.00
2018-12-20T05:38:25.493Z,0.00
2018-12-20T05:39:25.448Z,0.00
2018-12-20T05:40:25.528Z,0.00
2018-12-20T05:41:25.256Z,0.00
2018-12-20T05:42:25.480Z,0.00
2018-12-20T05:43:25.178Z,0.00
2018-12-20T05:44:25.221Z,0.00
2018-12-20T05:45:25.185Z,0.00
2018-12-20T05:46:25.054Z,0.00
2018-12-20T05:47:25.156Z,0.00
2018-12-20T05:48:25.012Z,0.00
2018-12-20T05:49:24.928Z,0.00
2018-12-20T05:50:24.913Z,0.00
2018-12-20T05:51:24.911Z,0.00
2018-12-20T05:52:25.016Z,0.00
2018-12-20T05:53:24.911Z,0.00
2018-12-20T05:54:24.831Z,0.00
2018-12-20T05:55:24.709Z,0.00
2018-12-20T05:56:24.694Z,0.00
2018-12-20T05:57:24.604Z,0.00
2018-12-20T05:58:24.742Z,0.00
2018-12-20T05:59:24.531Z,0.00
2018-12-20T06:00:24.481Z,0.00
2018-12-20T06:01:24.712Z,0.00
2018-12-20T06:02:24.449Z,0.00
2018-12-20T06:03:24.365Z,0.00
2018-12-20T06:04:24.322Z,0.00
2018-12-20T06:05:24.389Z,0.00
2018-12-20T06:06:24.256Z,0.00
2018-12-20T06:07:24.189Z,0.00
2018-12-20T06:08:24.149Z,0.00
2018-12-20T06:09:24.281Z,0.00
2018-12-20T06:10:24.063Z,0.00
2018-12-20T06:11:24.042Z,0.00
2018-12-20T06:12:24.064Z,0.00
2018-12-20T06:13:23.944Z,0.00
2018-12-20T06:14:24.124Z,0.00
2018-12-20T06:15:24.177Z,0.00
2018-12-20T06:16:23.924Z,0.00
2018-12-20T06:17:23.812Z,0.00
2018-12-20T06:18:23.741Z,0.00
2018-12-20T06:19:23.868Z,0.00
2018-12-20T06:20:23.804Z,0.00
2018-12-20T06:21:23.777Z,0.00
2018-12-20T06:22:23.631Z,0.00
2018-12-20T06:23:23.536Z,0.00
2018-12-20T06:24:23.493Z,0.00
2018-12-20T06:25:23.453Z,0.00
2018-12-20T06:26:23.413Z,0.00
2018-12-20T06:27:23.365Z,0.00
2018-12-20T06:28:23.326Z,0.00
2018-12-20T06:29:23.291Z,0.00
2018-12-20T06:30:23.247Z,0.00
2018-12-20T06:31:23.201Z,0.00
2018-12-20T06:32:23.161Z,0.00
2018-12-20T06:33:23.122Z,0.00
2018-12-20T06:34:23.080Z,0.00
2018-12-20T06:35:23.042Z,0.00
2018-12-20T06:36:23.002Z,0.00
2018-12-20T06:37:22.962Z,0.00
2018-12-20T06:38:22.919Z,0.00
2018-12-20T06:39:22.873Z,0.00
2018-12-20T06:40:22.833Z,0.00
2018-12-20T06:41:22.792Z,0.00
2018-12-20T06:42:22.748Z,0.00
2018-12-20T06:43:22.717Z,0.00
2018-12-20T06:44:22.672Z,0.00
2018-12-20T06:45:22.641Z,0.00
2018-12-20T06:46:22.592Z,0.00
2018-12-20T06:47:22.549Z,0.00
2018-12-20T06:48:22.510Z,0.00
2018-12-20T06:49:22.472Z,0.00
2018-12-20T06:50:22.426Z,0.00
2018-12-20T06:51:22.379Z,0.00
2018-12-20T06:52:22.344Z,0.00
2018-12-20T06:53:22.299Z,0.00
2018-12-20T06:54:22.260Z,0.00
2018-12-20T06:55:22.225Z,0.00
2018-12-20T06:56:22.181Z,0.00
2018-12-20T06:57:22.138Z,0.00
2018-12-20T06:58:22.099Z,0.00
2018-12-20T06:59:22.052Z,0.00
2018-12-20T07:00:22.012Z,0.00
2018-12-20T07:01:21.973Z,0.00
2018-12-20T07:02:21.942Z,0.00
2018-12-20T07:03:21.886Z,0.00
2018-12-20T07:04:21.851Z,0.00
2018-12-20T07:05:21.807Z,0.00
2018-12-20T07:06:21.762Z,0.00
2018-12-20T07:07:21.728Z,0.00
2018-12-20T07:08:21.684Z,0.00
2018-12-20T07:09:21.644Z,4.00
2018-12-20T07:10:21.605Z,4.00
2018-12-20T07:11:21.558Z,0.00
2018-12-20T07:12:21.518Z,4.00
2018-12-20T07:13:21.478Z,4.00
2018-12-20T07:14:21.435Z,4.00
2018-12-20T07:15:21.398Z,4.00
2018-12-20T07:16:29.122Z,8.00
2018-12-20T07:17:21.314Z,4.00
2018-12-20T07:18:21.272Z,8.00
2018-12-20T07:19:21.235Z,8.00
2018-12-20T07:20:21.200Z,8.00
2018-12-20T07:21:21.151Z,12.00
2018-12-20T07:22:21.614Z,12.00
2018-12-20T07:23:21.066Z,16.00
2018-12-20T07:24:21.026Z,16.00
2018-12-20T07:25:20.987Z,16.00
2018-12-20T07:26:20.945Z,20.00
2018-12-20T07:27:20.907Z,24.00
2018-12-20T07:28:20.864Z,24.00
2018-12-20T07:29:20.827Z,28.00
2018-12-20T07:30:20.783Z,28.00
2018-12-20T07:31:20.736Z,32.00
2018-12-20T07:32:25.124Z,36.00
2018-12-20T07:33:20.664Z,36.00
2018-12-20T07:34:20.621Z,44.00
2018-12-20T07:35:20.582Z,44.00
2018-12-20T07:36:20.533Z,48.00
2018-12-20T07:37:20.492Z,52.00
2018-12-20T07:38:20.450Z,52.00
2018-12-20T07:39:20.417Z,56.00
2018-12-20T07:40:20.371Z,60.00
2018-12-20T07:41:20.333Z,68.00
2018-12-20T07:42:20.291Z,68.00
2018-12-20T07:43:20.243Z,80.00
2018-12-20T07:44:20.283Z,84.00
2018-12-20T07:45:20.164Z,88.00
2018-12-20T07:46:20.124Z,92.00
2018-12-20T07:47:20.086Z,96.00
2018-12-20T07:48:20.044Z,104.00
2018-12-20T07:49:20.110Z,108.00
2018-12-20T07:50:19.956Z,112.00
2018-12-20T07:51:19.921Z,120.00
2018-12-20T07:52:19.878Z,128.00
2018-12-20T07:53:19.838Z,136.00
2018-12-20T07:54:19.797Z,144.00
2018-12-20T07:55:19.753Z,152.00
2018-12-20T07:56:19.722Z,156.00
2018-12-20T07:57:19.671Z,164.00
2018-12-20T07:58:19.626Z,176.00
2018-12-20T07:59:23.533Z,180.00
2018-12-20T08:00:19.550Z,188.00
2018-12-20T08:01:19.509Z,196.00
2018-12-20T08:02:19.469Z,208.00
2018-12-20T08:03:19.427Z,216.00
2018-12-20T08:04:19.383Z,228.00
2018-12-20T08:05:19.344Z,232.00
2018-12-20T08:06:19.305Z,244.00
2018-12-20T08:07:19.259Z,248.00
2018-12-20T08:08:19.221Z,260.00
2018-12-20T08:09:19.179Z,272.00
2018-12-20T08:10:19.134Z,284.00
2018-12-20T08:11:19.100Z,300.00
2018-12-20T08:12:19.058Z,312.00
2018-12-20T08:13:19.016Z,324.00
2018-12-20T08:14:18.976Z,336.00
2018-12-20T08:15:18.930Z,348.00
2018-12-20T08:16:18.892Z,360.00
2018-12-20T08:17:18.850Z,376.00
2018-12-20T08:18:18.808Z,392.00
2018-12-20T08:19:18.772Z,404.00
2018-12-20T08:20:18.729Z,420.00
2018-12-20T08:21:18.686Z,432.00
2018-12-20T08:22:18.641Z,440.00
2018-12-20T08:23:18.607Z,456.00
2018-12-20T08:24:18.566Z,476.00
2018-12-20T08:25:18.524Z,488.00
2018-12-20T08:26:18.483Z,472.00
2018-12-20T08:27:18.441Z,472.00
2018-12-20T08:28:18.404Z,480.00
2018-12-20T08:29:18.358Z,492.00
2018-12-20T08:30:18.314Z,504.00
2018-12-20T08:31:18.279Z,520.00
2018-12-20T08:32:18.244Z,540.00
2018-12-20T08:33:18.197Z,536.00
2018-12-20T08:34:18.155Z,512.00
2018-12-20T08:35:18.109Z,496.00
2018-12-20T08:36:18.071Z,468.00
2018-12-20T08:37:18.031Z,428.00
2018-12-20T08:38:17.989Z,388.00
2018-12-20T08:39:17.945Z,360.00
2018-12-20T08:40:17.913Z,328.00
2018-12-20T08:41:17.866Z,312.00
2018-12-20T08:42:17.829Z,336.00
2018-12-20T08:43:17.787Z,360.00
2018-12-20T08:44:17.845Z,364.00
2018-12-20T08:45:17.815Z,380.00
2018-12-20T08:46:17.660Z,408.00
2018-12-20T08:47:17.623Z,432.00
2018-12-20T08:48:17.582Z,448.00
2018-12-20T08:49:17.541Z,468.00
2018-12-20T08:50:17.500Z,496.00
2018-12-20T08:51:17.455Z,500.00
2018-12-20T08:52:17.415Z,500.00
2018-12-20T08:53:17.377Z,516.00
2018-12-20T08:54:17.337Z,540.00
2018-12-20T08:55:17.291Z,552.00
2018-12-20T08:56:17.254Z,560.00
2018-12-20T08:57:17.212Z,588.00
2018-12-20T08:58:17.168Z,664.00
2018-12-20T08:59:17.134Z,728.00
2018-12-20T09:00:17.090Z,760.00
2018-12-20T09:01:17.050Z,784.00
2018-12-20T09:02:17.010Z,808.00
2018-12-20T09:03:16.965Z,832.00
2018-12-20T09:04:16.925Z,856.00
2018-12-20T09:05:16.885Z,880.00
2018-12-20T09:06:16.842Z,912.00
2018-12-20T09:07:16.808Z,960.00
2018-12-20T09:08:16.760Z,1056.00
2018-12-20T09:09:16.721Z,1136.00
2018-12-20T09:10:16.675Z,1228.00
2018-12-20T09:11:16.649Z,1308.00
2018-12-20T09:12:16.602Z,1384.00
2018-12-20T09:13:16.561Z,1404.00
2018-12-20T09:14:16.519Z,1448.00
2018-12-20T09:15:16.472Z,1592.00
2018-12-20T09:16:16.434Z,1840.00
2018-12-20T09:17:16.396Z,1964.00
2018-12-20T09:18:16.348Z,2032.00
2018-12-20T09:19:16.317Z,2084.00
2018-12-20T09:20:16.271Z,2052.00
2018-12-20T09:21:16.235Z,2052.00
2018-12-20T09:22:16.195Z,2092.00
2018-12-20T09:23:16.145Z,1908.00
2018-12-20T09:24:16.108Z,1992.00
2018-12-20T09:25:16.070Z,1992.00
2018-12-20T09:26:16.028Z,1900.00
2018-12-20T09:27:15.981Z,1920.00
2018-12-20T09:28:15.948Z,1884.00
2018-12-20T09:29:15.904Z,1968.00
2018-12-20T09:30:15.860Z,2096.00
2018-12-20T09:31:15.829Z,2204.00
2018-12-20T09:32:15.783Z,2096.00
2018-12-20T09:33:15.745Z,2220.00
2018-12-20T09:34:15.710Z,2288.00
2018-12-20T09:35:15.658Z,2304.00
2018-12-20T09:36:15.620Z,2328.00
2018-12-20T09:37:15.578Z,2308.00
2018-12-20T09:38:15.535Z,2112.00
2018-12-20T09:39:15.501Z,2088.00
2018-12-20T09:40:15.458Z,2344.00
2018-12-20T09:41:15.418Z,2332.00
2018-12-20T09:42:15.373Z,2384.00
2018-12-20T09:43:15.339Z,2336.00
2018-12-20T09:44:15.301Z,2156.00
2018-12-20T09:45:15.260Z,2436.00
2018-12-20T09:46:15.221Z,2448.00
2018-12-20T09:47:15.175Z,2536.00
2018-12-20T09:48:15.136Z,2356.00
2018-12-20T09:49:15.093Z,2548.00
2018-12-20T09:50:15.051Z,2228.00
2018-12-20T09:51:15.017Z,2588.00
2018-12-20T09:52:14.976Z,2540.00
2018-12-20T09:53:14.934Z,2524.00
2018-12-20T09:54:14.896Z,2304.00
2018-12-20T09:55:14.877Z,2292.00
2018-12-20T09:56:14.811Z,2480.00
2018-12-20T09:57:14.773Z,2280.00
2018-12-20T09:58:14.736Z,2680.00
2018-12-20T09:59:14.689Z,2732.00
2018-12-20T10:00:14.652Z,2128.00
2018-12-20T10:01:14.610Z,2096.00
2018-12-20T10:02:14.568Z,2088.00
2018-12-20T10:03:14.533Z,2520.00
2018-12-20T10:04:14.491Z,2468.00
2018-12-20T10:05:14.451Z,2428.00
2018-12-20T10:20:02.656Z,2580.00
2018-12-20T10:21:02.591Z,2908.00
2018-12-20T10:22:02.544Z,2956.00
2018-12-20T10:23:02.503Z,2896.00
2018-12-20T10:24:02.457Z,2980.00
2018-12-20T10:25:02.414Z,3268.00
2018-12-20T10:26:02.367Z,2736.00
2018-12-20T10:27:02.331Z,3580.00
2018-12-20T10:28:10.912Z,3632.00
2018-12-20T10:30:06.691Z,3424.00
2018-12-20T10:31:06.634Z,3596.00
2018-12-20T10:32:06.589Z,3736.00
2018-12-20T10:33:06.550Z,3764.00
2018-12-20T10:34:06.504Z,3656.00
2018-12-20T10:35:06.471Z,3616.00
2018-12-20T10:36:06.427Z,3652.00
2018-12-20T10:37:06.386Z,3644.00
2018-12-20T10:38:06.348Z,3408.00
2018-12-20T10:39:06.304Z,2792.00
2018-12-20T10:40:06.281Z,2564.00
2018-12-20T10:41:06.220Z,2428.00
2018-12-20T10:42:06.179Z,2232.00
2018-12-20T10:43:06.139Z,2196.00
2018-12-20T10:44:06.103Z,3268.00
2018-12-20T10:45:06.064Z,3392.00
2018-12-20T10:46:06.023Z,3280.00
2018-12-20T10:47:05.981Z,3156.00
2018-12-20T10:48:05.939Z,3276.00
2018-12-20T10:49:05.897Z,3324.00
2018-12-20T10:50:05.865Z,2976.00
2018-12-20T10:51:05.820Z,3136.00
2018-12-20T10:52:05.778Z,2228.00
2018-12-20T10:53:05.740Z,2112.00
2018-12-20T10:54:05.702Z,2196.00
2018-12-20T10:55:05.658Z,2168.00
2018-12-20T10:56:05.620Z,2180.00
2018-12-20T10:57:05.582Z,2224.00
2018-12-20T10:58:05.545Z,2160.00
2018-12-20T10:59:05.501Z,2144.00
2018-12-20T11:00:05.458Z,2220.00
2018-12-20T11:01:05.416Z,2416.00
2018-12-20T11:02:05.377Z,2412.00
2018-12-20T11:03:05.338Z,2396.00
2018-12-20T11:04:05.302Z,2320.00
2018-12-20T11:05:05.264Z,2300.00
2018-12-20T11:06:05.217Z,2388.00
2018-12-20T11:07:05.180Z,2320.00
2018-12-20T11:08:05.141Z,2208.00
2018-12-20T11:09:05.102Z,2052.00
2018-12-20T11:10:05.063Z,1876.00
2018-12-20T11:11:05.020Z,1832.00
2018-12-20T11:12:04.979Z,1784.00
2018-12-20T11:13:04.938Z,1828.00
2018-12-20T11:14:04.899Z,1964.00
2018-12-20T11:15:04.859Z,2020.00
2018-12-20T11:16:04.820Z,1972.00
2018-12-20T11:17:04.787Z,2068.00
2018-12-20T11:18:04.743Z,2184.00
2018-12-20T11:19:04.705Z,2308.00
2018-12-20T11:20:04.660Z,3128.00
2018-12-20T11:21:04.620Z,2896.00
2018-12-20T11:22:04.583Z,2528.00
2018-12-20T11:23:04.544Z,2532.00
2018-12-20T11:24:04.498Z,2528.00
2018-12-20T11:25:04.457Z,2472.00
2018-12-20T11:26:04.420Z,2428.00
2018-12-20T11:27:04.388Z,2428.00
2018-12-20T11:28:04.341Z,2488.00
2018-12-20T11:29:04.304Z,3160.00
2018-12-20T11:30:04.266Z,2708.00
2018-12-20T11:31:04.222Z,2884.00
2018-12-20T11:32:04.180Z,3188.00
2018-12-20T11:33:04.138Z,2388.00
2018-12-20T11:34:04.100Z,2836.00
2018-12-20T11:35:04.061Z,2316.00
2018-12-20T11:36:04.022Z,2236.00
2018-12-20T11:37:03.986Z,2328.00
2018-12-20T11:38:03.940Z,2100.00
2018-12-20T11:39:08.414Z,2200.00
2018-12-20T11:40:03.863Z,2340.00
2018-12-20T11:41:03.827Z,2384.00
2018-12-20T11:42:03.786Z,2236.00
2018-12-20T11:43:03.743Z,2152.00
2018-12-20T11:44:03.701Z,2040.00
2018-12-20T11:45:03.660Z,1980.00
2018-12-20T11:46:03.622Z,1896.00
2018-12-20T11:47:03.583Z,1880.00
2018-12-20T11:48:03.550Z,2004.00
2018-12-20T11:49:03.507Z,1920.00
2018-12-20T11:50:03.469Z,1892.00
2018-12-20T11:51:03.428Z,1964.00
2018-12-20T11:52:03.383Z,2396.00
2018-12-20T11:53:03.341Z,2108.00
2018-12-20T11:54:03.309Z,1776.00
2018-12-20T11:55:03.266Z,1856.00
2018-12-20T11:56:03.226Z,2024.00
2018-12-20T11:57:03.184Z,2036.00
2018-12-20T11:58:03.148Z,1864.00
2018-12-20T11:59:03.105Z,1644.00
2018-12-20T12:00:03.067Z,1604.00
2018-12-20T12:01:03.030Z,1680.00
2018-12-20T12:02:02.988Z,1540.00
2018-12-20T12:03:02.949Z,1576.00
2018-12-20T12:04:02.904Z,1476.00
2018-12-20T12:05:02.869Z,1436.00
2018-12-20T12:06:02.828Z,1316.00
2018-12-20T12:07:02.787Z,1248.00
2018-12-20T12:08:02.751Z,1348.00
2018-12-20T12:09:02.710Z,1240.00
2018-12-20T12:10:02.674Z,1172.00
2018-12-20T12:11:02.628Z,1232.00
2018-12-20T12:12:02.591Z,1352.00
2018-12-20T12:13:02.551Z,1540.00
2018-12-20T12:14:02.510Z,1588.00
2018-12-20T12:15:02.473Z,1584.00
2018-12-20T12:16:02.426Z,1544.00
2018-12-20T12:17:02.389Z,1476.00
2018-12-20T12:18:02.350Z,1392.00
2018-12-20T12:19:02.305Z,1380.00
2018-12-20T12:20:02.272Z,1288.00
2018-12-20T12:21:02.234Z,1244.00
2018-12-20T12:22:02.192Z,1280.00
2018-12-20T12:23:02.153Z,1216.00
2018-12-20T12:24:02.106Z,1252.00
2018-12-20T12:25:02.069Z,1232.00
2018-12-20T12:26:02.034Z,1236.00
2018-12-20T12:27:01.995Z,1180.00
2018-12-20T12:28:01.947Z,1096.00
2018-12-20T12:29:01.909Z,1080.00
2018-12-20T12:30:01.871Z,1156.00
2018-12-20T12:31:01.827Z,1124.00
2018-12-20T12:32:01.799Z,1088.00
2018-12-20T12:33:01.752Z,1040.00
2018-12-20T12:34:01.714Z,916.00
2018-12-20T12:35:01.675Z,864.00
2018-12-20T12:36:01.630Z,868.00
2018-12-20T12:37:01.591Z,900.00
2018-12-20T12:38:01.550Z,952.00
2018-12-20T12:39:01.508Z,956.00
2018-12-20T12:40:01.474Z,900.00
2018-12-20T12:41:01.433Z,836.00
2018-12-20T12:42:01.391Z,852.00
2018-12-20T12:43:01.349Z,808.00
2018-12-20T12:44:01.315Z,860.00
2018-12-20T12:45:01.274Z,980.00
2018-12-20T12:46:01.238Z,1048.00
2018-12-20T12:47:01.195Z,1012.00
2018-12-20T12:48:03.707Z,1116.00
2018-12-20T12:49:01.116Z,1164.00
2018-12-20T12:50:01.079Z,1228.00
2018-12-20T12:51:01.032Z,1368.00
2018-12-20T12:52:00.998Z,1776.00
2018-12-20T12:53:00.953Z,1972.00
2018-12-20T12:54:00.914Z,2008.00
2018-12-20T12:55:00.876Z,1960.00
2018-12-20T12:56:00.834Z,2000.00
2018-12-20T12:57:00.801Z,2292.00
2018-12-20T12:58:04.564Z,1992.00
2018-12-20T12:59:00.716Z,2016.00
2018-12-20T13:00:00.670Z,1920.00
2018-12-20T13:01:00.632Z,1848.00
2018-12-20T13:02:00.598Z,1888.00
2018-12-20T13:03:00.551Z,1908.00
2018-12-20T13:04:00.516Z,1940.00
2018-12-20T13:05:00.475Z,1984.00
2018-12-20T13:06:00.434Z,1972.00
2018-12-20T13:07:00.396Z,1960.00
2018-12-20T13:08:00.352Z,1992.00
2018-12-20T13:09:00.317Z,2064.00
2018-12-20T13:10:00.273Z,2112.00
2018-12-20T13:11:00.231Z,2136.00
2018-12-20T13:12:00.197Z,2008.00
2018-12-20T13:13:00.157Z,1972.00
2018-12-20T13:14:00.115Z,1964.00
2018-12-20T13:15:00.071Z,1904.00
2018-12-20T13:16:00.039Z,1956.00
2018-12-20T13:16:59.996Z,1784.00
2018-12-20T13:17:59.959Z,1776.00